sensor_id;sensor_type;location;lat;lon;timestamp;temperature;humidity
20459;DHT22;10388;52.314;7.938;2022-08-04T03:31:55;20.10;99.90
20459;DHT22;10388;52.314;7.938;2022-08-04T03:45:50;20.10;99.90
20459;DHT22;10388;52.314;7.938;2022-08-04T03:49:09;20.10;99.90
20459;DHT22;10388;52.314;7.938;2022-08-04T03:55:37;20.10;99.90
20459;DHT22;10388;52.314;7.938;2022-08-04T04:19:20;20.00;99.90
20459;DHT22;10388;52.314;7.938;2022-08-04T04:22:02;20.10;99.90
20459;DHT22;10388;52.314;7.938;2022-08-04T04:25:10;20.10;99.90
20459;DHT22;10388;52.314;7.938;2022-08-04T04:37:06;20.30;99.90
20459;DHT22;10388;52.314;7.938;2022-08-04T04:43:18;20.30;99.90
20459;DHT22;10388;52.314;7.938;2022-08-04T04:49:01;20.50;99.90
20459;DHT22;10388;52.314;7.938;2022-08-04T04:52:20;20.50;99.90
20459;DHT22;10388;52.314;7.938;2022-08-04T04:55:16;20.50;99.90
20459;DHT22;10388;52.314;7.938;2022-08-04T04:57:50;20.50;99.90
20459;DHT22;10388;52.314;7.938;2022-08-04T05:06:20;20.70;99.90
20459;DHT22;10388;52.314;7.938;2022-08-04T05:14:46;20.70;99.90
20459;DHT22;10388;52.314;7.938;2022-08-04T05:17:19;20.80;99.90
20459;DHT22;10388;52.314;7.938;2022-08-04T05:19:59;20.80;99.90
20459;DHT22;10388;52.314;7.938;2022-08-04T05:25:07;20.90;99.90
20459;DHT22;10388;52.314;7.938;2022-08-04T05:27:44;21.00;99.90
20459;DHT22;10388;52.314;7.938;2022-08-04T05:30:17;21.10;99.90
20459;DHT22;10388;52.314;7.938;2022-08-04T05:32:59;21.20;99.90
20459;DHT22;10388;52.314;7.938;2022-08-04T05:38:38;21.30;99.90
20459;DHT22;10388;52.314;7.938;2022-08-04T05:41:09;21.40;99.90
20459;DHT22;10388;52.314;7.938;2022-08-04T05:43:42;21.50;99.90
20459;DHT22;10388;52.314;7.938;2022-08-04T05:46:15;21.60;99.90
20459;DHT22;10388;52.314;7.938;2022-08-04T05:48:46;21.70;99.90
20459;DHT22;10388;52.314;7.938;2022-08-04T05:51:17;21.70;99.90
20459;DHT22;10388;52.314;7.938;2022-08-04T05:53:49;21.90;99.90
20459;DHT22;10388;52.314;7.938;2022-08-04T05:56:21;22.00;99.90
20459;DHT22;10388;52.314;7.938;2022-08-04T05:58:53;22.20;99.90
20459;DHT22;10388;52.314;7.938;2022-08-04T06:01:24;22.20;99.90
20459;DHT22;10388;52.314;7.938;2022-08-04T06:04:00;22.40;99.90
20459;DHT22;10388;52.314;7.938;2022-08-04T06:06:32;22.50;99.90
20459;DHT22;10388;52.314;7.938;2022-08-04T06:09:03;22.70;99.90
20459;DHT22;10388;52.314;7.938;2022-08-04T06:11:34;22.70;99.90
20459;DHT22;10388;52.314;7.938;2022-08-04T06:14:07;22.80;99.90
20459;DHT22;10388;52.314;7.938;2022-08-04T06:16:40;22.90;99.90
20459;DHT22;10388;52.314;7.938;2022-08-04T06:19:13;23.00;99.90
20459;DHT22;10388;52.314;7.938;2022-08-04T06:21:47;23.10;99.90
20459;DHT22;10388;52.314;7.938;2022-08-04T06:24:21;23.20;99.90
20459;DHT22;10388;52.314;7.938;2022-08-04T06:26:53;23.30;99.90
20459;DHT22;10388;52.314;7.938;2022-08-04T06:29:25;23.40;99.90
20459;DHT22;10388;52.314;7.938;2022-08-04T06:32:02;23.40;99.90
20459;DHT22;10388;52.314;7.938;2022-08-04T06:34:42;23.40;99.90
20459;DHT22;10388;52.314;7.938;2022-08-04T06:37:14;23.40;99.90
20459;DHT22;10388;52.314;7.938;2022-08-04T06:39:46;23.60;99.90
20459;DHT22;10388;52.314;7.938;2022-08-04T06:42:20;23.80;99.90
20459;DHT22;10388;52.314;7.938;2022-08-04T06:44:54;23.90;99.90
20459;DHT22;10388;52.314;7.938;2022-08-04T06:47:26;23.90;99.90
20459;DHT22;10388;52.314;7.938;2022-08-04T06:49:57;23.90;99.90
20459;DHT22;10388;52.314;7.938;2022-08-04T06:52:29;24.00;99.90
20459;DHT22;10388;52.314;7.938;2022-08-04T06:55:00;24.10;99.90
20459;DHT22;10388;52.314;7.938;2022-08-04T06:57:34;24.30;99.90
20459;DHT22;10388;52.314;7.938;2022-08-04T07:00:08;24.40;99.90
20459;DHT22;10388;52.314;7.938;2022-08-04T07:02:46;24.60;99.90
20459;DHT22;10388;52.314;7.938;2022-08-04T07:05:18;24.70;99.90
20459;DHT22;10388;52.314;7.938;2022-08-04T07:07:49;24.70;99.90
20459;DHT22;10388;52.314;7.938;2022-08-04T07:10:20;24.80;99.90
20459;DHT22;10388;52.314;7.938;2022-08-04T07:12:52;24.90;99.90
20459;DHT22;10388;52.314;7.938;2022-08-04T07:15:24;25.00;99.90
20459;DHT22;10388;52.314;7.938;2022-08-04T07:17:55;25.00;99.90
20459;DHT22;10388;52.314;7.938;2022-08-04T07:20:29;25.00;99.90
20459;DHT22;10388;52.314;7.938;2022-08-04T07:23:00;25.20;99.90
20459;DHT22;10388;52.314;7.938;2022-08-04T07:25:33;25.40;99.90
20459;DHT22;10388;52.314;7.938;2022-08-04T07:28:04;25.40;99.90
20459;DHT22;10388;52.314;7.938;2022-08-04T07:30:36;25.40;99.90
20459;DHT22;10388;52.314;7.938;2022-08-04T07:33:07;25.50;99.90
20459;DHT22;10388;52.314;7.938;2022-08-04T07:35:38;25.70;99.90
20459;DHT22;10388;52.314;7.938;2022-08-04T07:38:08;25.80;99.90
20459;DHT22;10388;52.314;7.938;2022-08-04T07:40:41;26.00;99.90
20459;DHT22;10388;52.314;7.938;2022-08-04T07:43:14;26.00;99.90
20459;DHT22;10388;52.314;7.938;2022-08-04T07:45:45;26.10;99.90
20459;DHT22;10388;52.314;7.938;2022-08-04T07:48:16;26.10;99.90
20459;DHT22;10388;52.314;7.938;2022-08-04T07:50:49;26.20;99.90
20459;DHT22;10388;52.314;7.938;2022-08-04T07:53:20;26.30;99.90
20459;DHT22;10388;52.314;7.938;2022-08-04T07:55:51;26.40;99.90
20459;DHT22;10388;52.314;7.938;2022-08-04T07:58:22;26.70;99.90
20459;DHT22;10388;52.314;7.938;2022-08-04T08:00:53;26.80;99.90
20459;DHT22;10388;52.314;7.938;2022-08-04T08:03:25;26.90;99.90
20459;DHT22;10388;52.314;7.938;2022-08-04T08:05:56;27.00;99.90
20459;DHT22;10388;52.314;7.938;2022-08-04T08:08:26;27.10;99.90
20459;DHT22;10388;52.314;7.938;2022-08-04T08:10:57;27.30;99.90
20459;DHT22;10388;52.314;7.938;2022-08-04T08:13:28;27.20;99.90
20459;DHT22;10388;52.314;7.938;2022-08-04T08:15:59;27.40;99.90
20459;DHT22;10388;52.314;7.938;2022-08-04T08:18:30;27.50;99.90
20459;DHT22;10388;52.314;7.938;2022-08-04T08:21:01;27.60;99.90
20459;DHT22;10388;52.314;7.938;2022-08-04T08:23:34;27.70;99.90
20459;DHT22;10388;52.314;7.938;2022-08-04T08:26:05;27.80;99.90
20459;DHT22;10388;52.314;7.938;2022-08-04T08:28:35;27.90;99.90
20459;DHT22;10388;52.314;7.938;2022-08-04T08:31:06;28.00;99.90
20459;DHT22;10388;52.314;7.938;2022-08-04T08:33:37;28.20;99.90
20459;DHT22;10388;52.314;7.938;2022-08-04T08:36:36;28.30;99.90
20459;DHT22;10388;52.314;7.938;2022-08-04T08:39:28;28.50;99.90
20459;DHT22;10388;52.314;7.938;2022-08-04T08:56:38;29.30;99.90
20459;DHT22;10388;52.314;7.938;2022-08-04T09:02:32;29.40;99.90
20459;DHT22;10388;52.314;7.938;2022-08-04T09:08:29;29.60;99.90
20459;DHT22;10388;52.314;7.938;2022-08-04T09:11:15;29.50;99.90
20459;DHT22;10388;52.314;7.938;2022-08-04T09:13:55;29.70;99.90
20459;DHT22;10388;52.314;7.938;2022-08-04T09:16:56;29.80;99.90
20459;DHT22;10388;52.314;7.938;2022-08-04T09:19:38;29.80;99.90
20459;DHT22;10388;52.314;7.938;2022-08-04T09:22:21;29.80;99.90
20459;DHT22;10388;52.314;7.938;2022-08-04T09:25:01;29.80;99.90
20459;DHT22;10388;52.314;7.938;2022-08-04T09:27:50;29.80;99.90
20459;DHT22;10388;52.314;7.938;2022-08-04T09:30:39;30.00;99.90
20459;DHT22;10388;52.314;7.938;2022-08-04T09:41:54;30.50;99.90
20459;DHT22;10388;52.314;7.938;2022-08-04T09:45:06;30.60;99.90
20459;DHT22;10388;52.314;7.938;2022-08-04T09:50:55;30.90;99.90
20459;DHT22;10388;52.314;7.938;2022-08-04T09:59:56;31.00;99.90
20459;DHT22;10388;52.314;7.938;2022-08-04T10:02:04;31.10;99.90
20459;DHT22;10388;52.314;7.938;2022-08-04T10:04:38;31.20;99.90
20459;DHT22;10388;52.314;7.938;2022-08-04T10:12:46;31.10;99.90
20459;DHT22;10388;52.314;7.938;2022-08-04T10:15:41;31.20;99.90
20459;DHT22;10388;52.314;7.938;2022-08-04T10:21:11;31.60;99.90
20459;DHT22;10388;52.314;7.938;2022-08-04T10:24:20;31.70;99.90
20459;DHT22;10388;52.314;7.938;2022-08-04T10:27:06;31.90;99.90
20459;DHT22;10388;52.314;7.938;2022-08-04T10:29:43;31.90;99.90
20459;DHT22;10388;52.314;7.938;2022-08-04T10:35:27;32.10;99.90
20459;DHT22;10388;52.314;7.938;2022-08-04T10:41:04;32.20;99.90
20459;DHT22;10388;52.314;7.938;2022-08-04T10:43:50;32.40;99.90
20459;DHT22;10388;52.314;7.938;2022-08-04T10:46:28;32.50;99.90
20459;DHT22;10388;52.314;7.938;2022-08-04T10:52:07;32.30;99.90
20459;DHT22;10388;52.314;7.938;2022-08-04T10:54:48;32.30;99.90
20459;DHT22;10388;52.314;7.938;2022-08-04T10:57:40;32.50;99.90
20459;DHT22;10388;52.314;7.938;2022-08-04T11:00:17;32.70;99.90
20459;DHT22;10388;52.314;7.938;2022-08-04T11:03:12;32.50;99.90
20459;DHT22;10388;52.314;7.938;2022-08-04T11:05:55;32.40;99.90
20459;DHT22;10388;52.314;7.938;2022-08-04T11:08:35;32.30;99.90
20459;DHT22;10388;52.314;7.938;2022-08-04T11:14:02;32.60;99.90
20459;DHT22;10388;52.314;7.938;2022-08-04T11:16:45;32.70;99.90
20459;DHT22;10388;52.314;7.938;2022-08-04T11:19:29;32.80;99.90
20459;DHT22;10388;52.314;7.938;2022-08-04T11:22:10;32.90;99.90
20459;DHT22;10388;52.314;7.938;2022-08-04T11:24:49;33.00;99.90
20459;DHT22;10388;52.314;7.938;2022-08-04T11:27:45;33.00;99.90
20459;DHT22;10388;52.314;7.938;2022-08-04T11:30:20;33.00;99.90
20459;DHT22;10388;52.314;7.938;2022-08-04T11:33:19;33.10;99.90
20459;DHT22;10388;52.314;7.938;2022-08-04T11:36:19;33.10;99.90
20459;DHT22;10388;52.314;7.938;2022-08-04T11:41:47;33.00;99.90
20459;DHT22;10388;52.314;7.938;2022-08-04T11:44:40;32.80;99.90
20459;DHT22;10388;52.314;7.938;2022-08-04T11:47:33;32.80;99.90
20459;DHT22;10388;52.314;7.938;2022-08-04T11:50:19;33.00;99.90
20459;DHT22;10388;52.314;7.938;2022-08-04T11:52:53;33.00;99.90
20459;DHT22;10388;52.314;7.938;2022-08-04T11:55:26;33.00;99.90
20459;DHT22;10388;52.314;7.938;2022-08-04T11:57:57;33.20;99.90
20459;DHT22;10388;52.314;7.938;2022-08-04T12:00:30;33.20;99.90
20459;DHT22;10388;52.314;7.938;2022-08-04T12:05:43;33.10;99.90
20459;DHT22;10388;52.314;7.938;2022-08-04T12:08:39;33.00;99.90
20459;DHT22;10388;52.314;7.938;2022-08-04T12:11:23;32.90;99.90
20459;DHT22;10388;52.314;7.938;2022-08-04T12:14:25;32.70;99.90
20459;DHT22;10388;52.314;7.938;2022-08-04T12:20:05;32.90;99.90
20459;DHT22;10388;52.314;7.938;2022-08-04T12:22:33;33.10;99.90
20459;DHT22;10388;52.314;7.938;2022-08-04T12:25:05;33.20;99.90
20459;DHT22;10388;52.314;7.938;2022-08-04T12:27:41;33.20;99.90
20459;DHT22;10388;52.314;7.938;2022-08-04T12:30:18;33.30;99.90
20459;DHT22;10388;52.314;7.938;2022-08-04T12:33:03;33.40;99.90
20459;DHT22;10388;52.314;7.938;2022-08-04T12:35:41;33.30;99.90
20459;DHT22;10388;52.314;7.938;2022-08-04T12:38:14;33.10;99.90
20459;DHT22;10388;52.314;7.938;2022-08-04T12:40:54;33.00;99.90
20459;DHT22;10388;52.314;7.938;2022-08-04T12:43:40;32.70;99.90
20459;DHT22;10388;52.314;7.938;2022-08-04T12:46:19;32.70;99.90
20459;DHT22;10388;52.314;7.938;2022-08-04T12:48:51;32.70;99.90
20459;DHT22;10388;52.314;7.938;2022-08-04T12:51:26;32.50;99.90
20459;DHT22;10388;52.314;7.938;2022-08-04T12:53:57;32.50;99.90
20459;DHT22;10388;52.314;7.938;2022-08-04T12:56:28;32.40;99.90
20459;DHT22;10388;52.314;7.938;2022-08-04T12:59:03;32.30;99.90
20459;DHT22;10388;52.314;7.938;2022-08-04T13:01:34;32.20;99.90
20459;DHT22;10388;52.314;7.938;2022-08-04T13:04:12;32.10;99.90
20459;DHT22;10388;52.314;7.938;2022-08-04T13:07:00;32.10;99.90
20459;DHT22;10388;52.314;7.938;2022-08-04T13:09:33;31.90;99.90
20459;DHT22;10388;52.314;7.938;2022-08-04T13:12:14;31.80;99.90
20459;DHT22;10388;52.314;7.938;2022-08-04T13:14:50;31.60;99.90
20459;DHT22;10388;52.314;7.938;2022-08-04T13:17:22;31.50;99.90
20459;DHT22;10388;52.314;7.938;2022-08-04T13:19:54;31.30;99.90
20459;DHT22;10388;52.314;7.938;2022-08-04T13:22:27;31.10;99.90
20459;DHT22;10388;52.314;7.938;2022-08-04T13:24:58;30.60;99.90
20459;DHT22;10388;52.314;7.938;2022-08-04T13:27:30;30.20;99.90
20459;DHT22;10388;52.314;7.938;2022-08-04T13:30:01;30.10;99.90
20459;DHT22;10388;52.314;7.938;2022-08-04T13:32:33;30.00;99.90
20459;DHT22;10388;52.314;7.938;2022-08-04T13:35:07;30.00;99.90
20459;DHT22;10388;52.314;7.938;2022-08-04T13:37:39;29.80;99.90
20459;DHT22;10388;52.314;7.938;2022-08-04T13:40:13;29.70;99.90
20459;DHT22;10388;52.314;7.938;2022-08-04T13:42:46;29.20;99.90
20459;DHT22;10388;52.314;7.938;2022-08-04T13:45:22;28.80;99.90
20459;DHT22;10388;52.314;7.938;2022-08-04T13:47:57;28.70;99.90
20459;DHT22;10388;52.314;7.938;2022-08-04T13:50:29;28.50;99.90
20459;DHT22;10388;52.314;7.938;2022-08-04T13:53:01;28.40;99.90
20459;DHT22;10388;52.314;7.938;2022-08-04T13:55:34;28.40;99.90
20459;DHT22;10388;52.314;7.938;2022-08-04T13:58:22;28.40;99.90
20459;DHT22;10388;52.314;7.938;2022-08-04T14:01:01;28.50;99.90
20459;DHT22;10388;52.314;7.938;2022-08-04T14:03:38;28.60;99.90
20459;DHT22;10388;52.314;7.938;2022-08-04T14:08:54;28.20;99.90
20459;DHT22;10388;52.314;7.938;2022-08-04T14:11:37;28.10;99.90
20459;DHT22;10388;52.314;7.938;2022-08-04T14:17:10;28.00;99.90
20459;DHT22;10388;52.314;7.938;2022-08-04T14:30:33;27.90;99.90
20459;DHT22;10388;52.314;7.938;2022-08-04T14:33:10;27.90;99.90
20459;DHT22;10388;52.314;7.938;2022-08-04T14:35:40;27.90;99.90
20459;DHT22;10388;52.314;7.938;2022-08-04T14:38:11;27.90;99.90
20459;DHT22;10388;52.314;7.938;2022-08-04T14:40:41;27.80;99.90
20459;DHT22;10388;52.314;7.938;2022-08-04T14:43:16;27.70;99.90
20459;DHT22;10388;52.314;7.938;2022-08-04T14:45:47;27.60;99.90
20459;DHT22;10388;52.314;7.938;2022-08-04T14:48:23;27.60;99.90
20459;DHT22;10388;52.314;7.938;2022-08-04T14:50:54;27.70;99.90
20459;DHT22;10388;52.314;7.938;2022-08-04T14:53:25;27.60;99.90
20459;DHT22;10388;52.314;7.938;2022-08-04T14:55:59;27.80;99.90
20459;DHT22;10388;52.314;7.938;2022-08-04T14:58:32;28.00;99.90
20459;DHT22;10388;52.314;7.938;2022-08-04T15:01:05;28.20;99.90
20459;DHT22;10388;52.314;7.938;2022-08-04T15:03:41;28.30;99.90
20459;DHT22;10388;52.314;7.938;2022-08-04T15:06:13;28.40;99.90
20459;DHT22;10388;52.314;7.938;2022-08-04T15:08:43;28.30;99.90
20459;DHT22;10388;52.314;7.938;2022-08-04T15:11:14;28.30;99.90
20459;DHT22;10388;52.314;7.938;2022-08-04T15:13:45;28.20;99.90
20459;DHT22;10388;52.314;7.938;2022-08-04T15:16:16;28.20;99.90
20459;DHT22;10388;52.314;7.938;2022-08-04T15:18:47;28.20;99.90
20459;DHT22;10388;52.314;7.938;2022-08-04T15:21:18;28.20;99.90
20459;DHT22;10388;52.314;7.938;2022-08-04T15:23:49;28.00;99.90
20459;DHT22;10388;52.314;7.938;2022-08-04T15:26:46;27.90;99.90
20459;DHT22;10388;52.314;7.938;2022-08-04T15:29:50;27.90;99.90
20459;DHT22;10388;52.314;7.938;2022-08-04T15:32:20;27.80;99.90
20459;DHT22;10388;52.314;7.938;2022-08-04T15:34:51;27.80;99.90
20459;DHT22;10388;52.314;7.938;2022-08-04T15:40:47;27.40;99.90
20459;DHT22;10388;52.314;7.938;2022-08-04T15:46:14;27.30;99.90
20459;DHT22;10388;52.314;7.938;2022-08-04T15:48:44;27.20;99.90
20459;DHT22;10388;52.314;7.938;2022-08-04T15:51:23;27.10;99.90
20459;DHT22;10388;52.314;7.938;2022-08-04T15:58:58;27.10;99.90
20459;DHT22;10388;52.314;7.938;2022-08-04T16:01:29;27.10;99.90
20459;DHT22;10388;52.314;7.938;2022-08-04T16:03:59;27.10;99.90
20459;DHT22;10388;52.314;7.938;2022-08-04T16:06:49;27.00;99.90
20459;DHT22;10388;52.314;7.938;2022-08-04T16:09:22;26.90;99.90
20459;DHT22;10388;52.314;7.938;2022-08-04T16:11:53;26.90;99.90
20459;DHT22;10388;52.314;7.938;2022-08-04T16:14:31;26.90;99.90
20459;DHT22;10388;52.314;7.938;2022-08-04T16:17:16;26.70;99.90
20459;DHT22;10388;52.314;7.938;2022-08-04T16:20:02;26.80;99.90
20459;DHT22;10388;52.314;7.938;2022-08-04T16:22:38;26.80;99.90
20459;DHT22;10388;52.314;7.938;2022-08-04T16:25:09;26.70;99.90
20459;DHT22;10388;52.314;7.938;2022-08-04T16:27:43;26.60;99.90
20459;DHT22;10388;52.314;7.938;2022-08-04T16:30:14;26.60;99.90
20459;DHT22;10388;52.314;7.938;2022-08-04T16:32:46;26.50;99.90
20459;DHT22;10388;52.314;7.938;2022-08-04T16:35:35;26.40;99.90
20459;DHT22;10388;52.314;7.938;2022-08-04T16:38:14;26.50;99.90
20459;DHT22;10388;52.314;7.938;2022-08-04T16:40:59;26.40;99.90
20459;DHT22;10388;52.314;7.938;2022-08-04T16:43:31;26.20;99.90
20459;DHT22;10388;52.314;7.938;2022-08-04T16:46:02;26.10;99.90
20459;DHT22;10388;52.314;7.938;2022-08-04T16:48:35;26.10;99.90
20459;DHT22;10388;52.314;7.938;2022-08-04T16:51:10;26.00;99.90
20459;DHT22;10388;52.314;7.938;2022-08-04T16:53:45;26.10;99.90
20459;DHT22;10388;52.314;7.938;2022-08-04T16:56:17;26.10;99.90
20459;DHT22;10388;52.314;7.938;2022-08-04T16:58:52;26.20;99.90
20459;DHT22;10388;52.314;7.938;2022-08-04T17:01:23;26.20;99.90
20459;DHT22;10388;52.314;7.938;2022-08-04T17:03:54;26.00;99.90
20459;DHT22;10388;52.314;7.938;2022-08-04T17:06:42;25.80;99.90
20459;DHT22;10388;52.314;7.938;2022-08-04T17:09:15;25.90;99.90
20459;DHT22;10388;52.314;7.938;2022-08-04T17:11:47;25.90;99.90
20459;DHT22;10388;52.314;7.938;2022-08-04T17:14:43;25.90;99.90
20459;DHT22;10388;52.314;7.938;2022-08-04T17:17:14;25.90;99.90
20459;DHT22;10388;52.314;7.938;2022-08-04T17:19:52;25.90;99.90
20459;DHT22;10388;52.314;7.938;2022-08-04T17:22:25;25.80;99.90
20459;DHT22;10388;52.314;7.938;2022-08-04T17:24:58;25.60;99.90
20459;DHT22;10388;52.314;7.938;2022-08-04T17:27:29;25.70;99.90
20459;DHT22;10388;52.314;7.938;2022-08-04T17:29:59;25.60;99.90
20459;DHT22;10388;52.314;7.938;2022-08-04T17:32:30;25.70;99.90
20459;DHT22;10388;52.314;7.938;2022-08-04T17:35:00;25.70;99.90
20459;DHT22;10388;52.314;7.938;2022-08-04T17:37:31;25.80;99.90
20459;DHT22;10388;52.314;7.938;2022-08-04T17:40:13;25.80;99.90
20459;DHT22;10388;52.314;7.938;2022-08-04T17:42:44;25.70;99.90
20459;DHT22;10388;52.314;7.938;2022-08-04T17:45:16;25.70;99.90
20459;DHT22;10388;52.314;7.938;2022-08-04T17:47:50;25.60;99.90
20459;DHT22;10388;52.314;7.938;2022-08-04T17:50:25;25.50;99.90
20459;DHT22;10388;52.314;7.938;2022-08-04T17:53:04;25.40;99.90
20459;DHT22;10388;52.314;7.938;2022-08-04T17:58:20;25.30;99.90
20459;DHT22;10388;52.314;7.938;2022-08-04T18:00:59;25.30;99.90
20459;DHT22;10388;52.314;7.938;2022-08-04T18:03:30;25.30;99.90
20459;DHT22;10388;52.314;7.938;2022-08-04T18:06:11;25.30;99.90
20459;DHT22;10388;52.314;7.938;2022-08-04T18:08:42;25.20;99.90
20459;DHT22;10388;52.314;7.938;2022-08-04T18:11:18;25.20;99.90
20459;DHT22;10388;52.314;7.938;2022-08-04T18:13:52;25.20;99.90
20459;DHT22;10388;52.314;7.938;2022-08-04T18:16:23;25.10;99.90
20459;DHT22;10388;52.314;7.938;2022-08-04T18:19:11;25.10;99.90
20459;DHT22;10388;52.314;7.938;2022-08-04T18:21:43;25.00;99.90
20459;DHT22;10388;52.314;7.938;2022-08-04T18:24:15;24.90;99.90
20459;DHT22;10388;52.314;7.938;2022-08-04T18:26:45;24.90;99.90
20459;DHT22;10388;52.314;7.938;2022-08-04T18:29:16;24.80;99.90
20459;DHT22;10388;52.314;7.938;2022-08-04T18:31:46;24.80;99.90
20459;DHT22;10388;52.314;7.938;2022-08-04T18:34:17;24.70;99.90
20459;DHT22;10388;52.314;7.938;2022-08-04T18:36:47;24.70;99.90
20459;DHT22;10388;52.314;7.938;2022-08-04T18:39:21;24.70;99.90
20459;DHT22;10388;52.314;7.938;2022-08-04T18:41:55;24.60;99.90
20459;DHT22;10388;52.314;7.938;2022-08-04T18:44:26;24.60;99.90
20459;DHT22;10388;52.314;7.938;2022-08-04T18:46:59;24.50;99.90
20459;DHT22;10388;52.314;7.938;2022-08-04T18:49:30;24.50;99.90
20459;DHT22;10388;52.314;7.938;2022-08-04T18:52:01;24.50;99.90
20459;DHT22;10388;52.314;7.938;2022-08-04T18:54:32;24.50;99.90
20459;DHT22;10388;52.314;7.938;2022-08-04T18:57:02;24.50;99.90
20459;DHT22;10388;52.314;7.938;2022-08-04T18:59:33;24.40;99.90
20459;DHT22;10388;52.314;7.938;2022-08-04T19:02:04;24.30;99.90
20459;DHT22;10388;52.314;7.938;2022-08-04T19:04:34;24.20;99.90
20459;DHT22;10388;52.314;7.938;2022-08-04T19:07:05;24.20;99.90
20459;DHT22;10388;52.314;7.938;2022-08-04T19:09:36;24.20;99.90
20459;DHT22;10388;52.314;7.938;2022-08-04T19:12:06;24.20;99.90
20459;DHT22;10388;52.314;7.938;2022-08-04T19:14:37;24.10;99.90
20459;DHT22;10388;52.314;7.938;2022-08-04T19:17:08;24.10;99.90
20459;DHT22;10388;52.314;7.938;2022-08-04T19:19:39;24.10;99.90
20459;DHT22;10388;52.314;7.938;2022-08-04T19:22:09;24.10;99.90
20459;DHT22;10388;52.314;7.938;2022-08-04T19:24:40;24.00;99.90
20459;DHT22;10388;52.314;7.938;2022-08-04T19:27:10;24.00;99.90
20459;DHT22;10388;52.314;7.938;2022-08-04T19:29:41;23.90;99.90
20459;DHT22;10388;52.314;7.938;2022-08-04T19:32:12;23.80;99.90
20459;DHT22;10388;52.314;7.938;2022-08-04T19:34:46;23.80;99.90
20459;DHT22;10388;52.314;7.938;2022-08-04T19:37:17;23.70;99.90
20459;DHT22;10388;52.314;7.938;2022-08-04T19:39:48;23.70;99.90
20459;DHT22;10388;52.314;7.938;2022-08-04T19:42:20;23.70;99.90
20459;DHT22;10388;52.314;7.938;2022-08-04T19:44:50;23.60;99.90
20459;DHT22;10388;52.314;7.938;2022-08-04T19:47:21;23.60;99.90
20459;DHT22;10388;52.314;7.938;2022-08-04T19:49:52;23.60;99.90
20459;DHT22;10388;52.314;7.938;2022-08-04T19:52:23;23.70;99.90
20459;DHT22;10388;52.314;7.938;2022-08-04T19:54:54;23.70;99.90
20459;DHT22;10388;52.314;7.938;2022-08-04T19:57:24;23.60;99.90
20459;DHT22;10388;52.314;7.938;2022-08-04T19:59:55;23.50;99.90
20459;DHT22;10388;52.314;7.938;2022-08-04T20:02:25;23.40;99.90
20459;DHT22;10388;52.314;7.938;2022-08-04T20:04:56;23.30;99.90
20459;DHT22;10388;52.314;7.938;2022-08-04T20:07:26;23.20;99.90
20459;DHT22;10388;52.314;7.938;2022-08-04T20:09:57;23.10;99.90
20459;DHT22;10388;52.314;7.938;2022-08-04T20:12:28;23.00;99.90
20459;DHT22;10388;52.314;7.938;2022-08-04T20:14:59;22.90;99.90
20459;DHT22;10388;52.314;7.938;2022-08-04T20:17:30;22.80;99.90
20459;DHT22;10388;52.314;7.938;2022-08-04T20:20:01;22.80;99.90
20459;DHT22;10388;52.314;7.938;2022-08-04T20:22:32;22.70;99.90
20459;DHT22;10388;52.314;7.938;2022-08-04T20:25:03;22.60;99.90
20459;DHT22;10388;52.314;7.938;2022-08-04T20:27:33;22.60;99.90
20459;DHT22;10388;52.314;7.938;2022-08-04T20:30:04;22.50;99.90
20459;DHT22;10388;52.314;7.938;2022-08-04T20:32:35;22.50;99.90
20459;DHT22;10388;52.314;7.938;2022-08-04T20:35:06;22.50;99.90
20459;DHT22;10388;52.314;7.938;2022-08-04T20:37:40;22.40;99.90
20459;DHT22;10388;52.314;7.938;2022-08-04T20:40:11;22.40;99.90
20459;DHT22;10388;52.314;7.938;2022-08-04T20:42:44;22.40;99.90
20459;DHT22;10388;52.314;7.938;2022-08-04T20:45:16;22.30;99.90
20459;DHT22;10388;52.314;7.938;2022-08-04T20:47:46;22.30;99.90
20459;DHT22;10388;52.314;7.938;2022-08-04T20:50:17;22.30;99.90
20459;DHT22;10388;52.314;7.938;2022-08-04T20:52:47;22.20;99.90
20459;DHT22;10388;52.314;7.938;2022-08-04T20:55:18;22.20;99.90
20459;DHT22;10388;52.314;7.938;2022-08-04T20:57:48;22.20;99.90
20459;DHT22;10388;52.314;7.938;2022-08-04T21:00:19;22.10;99.90
20459;DHT22;10388;52.314;7.938;2022-08-04T21:02:50;22.10;99.90
20459;DHT22;10388;52.314;7.938;2022-08-04T21:05:20;22.20;99.90
20459;DHT22;10388;52.314;7.938;2022-08-04T21:07:51;22.10;99.90
20459;DHT22;10388;52.314;7.938;2022-08-04T21:10:23;22.10;99.90
20459;DHT22;10388;52.314;7.938;2022-08-04T21:12:54;22.00;99.90
20459;DHT22;10388;52.314;7.938;2022-08-04T21:15:25;22.00;99.90
20459;DHT22;10388;52.314;7.938;2022-08-04T21:17:57;22.00;99.90
20459;DHT22;10388;52.314;7.938;2022-08-04T21:20:27;22.00;99.90
20459;DHT22;10388;52.314;7.938;2022-08-04T21:22:58;21.90;99.90
20459;DHT22;10388;52.314;7.938;2022-08-04T21:25:29;21.90;99.90
20459;DHT22;10388;52.314;7.938;2022-08-04T21:28:00;21.80;99.90
20459;DHT22;10388;52.314;7.938;2022-08-04T21:30:31;21.80;99.90
20459;DHT22;10388;52.314;7.938;2022-08-04T21:33:01;21.80;99.90
20459;DHT22;10388;52.314;7.938;2022-08-04T21:35:32;21.80;99.90
20459;DHT22;10388;52.314;7.938;2022-08-04T21:38:03;21.70;99.90
20459;DHT22;10388;52.314;7.938;2022-08-04T21:40:33;21.70;99.90
20459;DHT22;10388;52.314;7.938;2022-08-04T21:43:04;21.70;99.90
20459;DHT22;10388;52.314;7.938;2022-08-04T21:45:34;21.70;99.90
20459;DHT22;10388;52.314;7.938;2022-08-04T21:48:05;21.70;99.90
20459;DHT22;10388;52.314;7.938;2022-08-04T21:50:35;21.60;99.90
20459;DHT22;10388;52.314;7.938;2022-08-04T21:53:06;21.60;99.90
20459;DHT22;10388;52.314;7.938;2022-08-04T21:55:37;21.60;99.90
20459;DHT22;10388;52.314;7.938;2022-08-04T21:58:08;21.60;99.90
20459;DHT22;10388;52.314;7.938;2022-08-04T22:00:39;21.50;99.90
20459;DHT22;10388;52.314;7.938;2022-08-04T22:03:09;21.50;99.90
20459;DHT22;10388;52.314;7.938;2022-08-04T22:05:40;21.50;99.90
20459;DHT22;10388;52.314;7.938;2022-08-04T22:08:10;21.50;99.90
20459;DHT22;10388;52.314;7.938;2022-08-04T22:10:41;21.40;99.90
20459;DHT22;10388;52.314;7.938;2022-08-04T22:13:11;21.40;99.90
20459;DHT22;10388;52.314;7.938;2022-08-04T22:15:42;21.40;99.90
20459;DHT22;10388;52.314;7.938;2022-08-04T22:18:12;21.40;99.90
20459;DHT22;10388;52.314;7.938;2022-08-04T22:20:43;21.40;99.90
20459;DHT22;10388;52.314;7.938;2022-08-04T22:23:14;21.40;99.90
20459;DHT22;10388;52.314;7.938;2022-08-04T22:25:44;21.40;99.90
20459;DHT22;10388;52.314;7.938;2022-08-04T22:28:15;21.30;99.90
20459;DHT22;10388;52.314;7.938;2022-08-04T22:30:45;21.30;99.90
20459;DHT22;10388;52.314;7.938;2022-08-04T22:33:17;21.30;99.90
20459;DHT22;10388;52.314;7.938;2022-08-04T22:35:48;21.30;99.90
20459;DHT22;10388;52.314;7.938;2022-08-04T22:38:18;21.30;99.90